Albany, New York
Traffic Map
Current Weather Conditions
Albany, New York
Broken Clouds
Broken Clouds
17°
Feels Like: 6°
Wind Chill: Ceiling: 8000
Heat Index: 17° Visibility: 10mi
Dew Point: Wind: 9mph
Humidity: 62% Direction: 320° (NW)
Pressure: 29.87in Gusts: 0mph
Raw Report DataKALB 131051Z 32008KT 10SM BKN080 M08/M14 A2987 RMK AO2 SLP121 T10831144
Traffic Incident Summary
Active as of:
Severity:
Category:
InformationThere was an issue retrieving the traffic information for this location. Please try a different location or try again shortly.
Advertisements
Track Severe Weather on mobile